Time;durP1;ratioP1;P1;durP2;ratioP2;P2;SDS_P1;SDS_P2;PMS_P1;PMS_P2;Temp;Humidity;BMP_temperature;BMP_pressure;BME280_temperature;BME280_humidity;BME280_pressure;Samples;Min_cycle;Max_cycle;Signal;HPM_P1;HPM_P2
2022/08/25 00:00:28;;;;;;;5.30;4.90;;;17.80;99.90;;;18.76;82.26;98047.34;5223144;28;20294;-65
2022/08/25 00:03:01;;;;;;;5.65;5.15;;;17.80;99.90;;;18.70;82.64;98050.59;5222177;28;20242;-65
2022/08/25 00:05:36;;;;;;;4.90;4.57;;;17.80;99.90;;;18.75;82.36;98043.00;5216839;28;20201;-65
2022/08/25 00:08:10;;;;;;;5.53;5.13;;;17.80;99.90;;;18.74;82.10;98047.28;5224260;28;20239;-65
2022/08/25 00:10:45;;;;;;;5.63;5.22;;;17.80;99.90;;;18.67;82.46;98045.34;5221606;28;20669;-65
2022/08/25 00:13:35;;;;;;;5.43;5.00;;;17.70;99.90;;;18.65;83.29;98045.28;5222959;28;20218;-65
2022/08/25 00:16:08;;;;;;;5.43;4.97;;;17.70;99.90;;;18.61;82.69;98045.16;5221266;28;20479;-65
2022/08/25 00:18:44;;;;;;;6.15;5.30;;;17.70;99.90;;;18.52;83.20;98044.91;5221788;28;20666;-65
2022/08/25 00:21:18;;;;;;;5.50;5.00;;;17.50;99.90;;;18.50;83.75;98049.16;5223551;28;20229;-65
2022/08/25 00:23:51;;;;;;;6.05;5.07;;;17.50;99.90;;;18.44;83.48;98042.97;5223184;28;20587;-65
2022/08/25 00:26:26;;;;;;;5.75;5.25;;;17.50;99.90;;;18.43;83.28;98050.69;5222574;28;20271;-66
2022/08/25 00:28:59;;;;;;;6.00;5.43;;;17.50;99.90;;;18.34;83.49;98045.22;5223333;28;20196;-65
2022/08/25 00:31:34;;;;;;;4.85;4.53;;;17.40;99.90;;;18.35;83.85;98047.88;5223158;28;20205;-65
2022/08/25 00:34:15;;;;;;;5.50;5.10;;;17.40;99.90;;;18.38;83.50;98045.38;5219881;28;20221;-66
2022/08/25 00:36:50;;;;;;;5.20;4.80;;;17.40;99.90;;;18.38;83.85;98040.19;5222035;28;20194;-65
2022/08/25 00:39:25;;;;;;;5.55;5.05;;;17.40;99.90;;;18.30;84.23;98040.81;5218128;28;20211;-65
2022/08/25 00:42:00;;;;;;;5.28;4.97;;;17.40;99.90;;;18.34;83.35;98040.97;5217808;28;20789;-65
2022/08/25 00:44:34;;;;;;;6.18;5.50;;;17.40;99.90;;;18.40;83.77;98040.25;5221771;28;20251;-65
2022/08/25 00:47:08;;;;;;;5.55;5.15;;;17.40;99.90;;;18.38;83.85;98042.78;5221138;28;20423;-65
2022/08/25 00:49:46;;;;;;;5.68;5.28;;;17.40;99.90;;;18.30;84.05;98039.09;5219454;28;20216;-66
2022/08/25 00:52:24;;;;;;;5.97;5.57;;;17.30;99.90;;;18.24;84.83;98031.16;5221207;28;20225;-66
2022/08/25 00:55:02;;;;;;;5.35;4.95;;;17.30;99.90;;;18.18;84.58;98034.44;5221112;28;20236;-65
2022/08/25 00:57:47;;;;;;;5.68;5.28;;;17.30;99.90;;;18.24;84.80;98044.09;5220802;28;20204;-65
2022/08/25 01:00:26;;;;;;;5.88;5.47;;;17.30;99.90;;;18.23;84.43;98037.19;5220524;28;20196;-65
2022/08/25 01:03:00;;;;;;;5.85;5.43;;;17.30;99.90;;;18.24;84.90;98036.34;5220761;28;20270;-66
2022/08/25 01:05:34;;;;;;;6.10;5.60;;;17.30;99.90;;;18.23;84.45;98039.75;5220306;28;20200;-66
2022/08/25 01:08:08;;;;;;;5.80;5.30;;;17.30;99.90;;;18.21;84.32;98044.00;5220233;28;20298;-65
2022/08/25 01:10:44;;;;;;;5.72;5.22;;;17.30;99.90;;;18.15;84.85;98039.53;5219952;28;20288;-66
2022/08/25 01:13:23;;;;;;;6.15;5.72;;;17.20;99.90;;;18.10;85.10;98035.91;5222086;28;20680;-65
2022/08/25 01:15:57;;;;;;;6.22;5.72;;;17.20;99.90;;;18.09;84.96;98033.28;5220020;28;20201;-65
2022/08/25 01:18:45;;;;;;;6.57;5.97;;;17.10;99.90;;;18.05;85.13;98036.59;5218879;28;20626;-65
2022/08/25 01:21:23;;;;;;;5.82;5.35;;;17.10;99.90;;;18.00;85.48;98039.06;5217954;28;20696;-65
2022/08/25 01:23:59;;;;;;;5.68;5.15;;;17.10;99.90;;;18.01;84.97;98028.75;5221337;28;20300;-65
2022/08/25 01:26:35;;;;;;;6.43;5.82;;;17.10;99.90;;;17.98;85.69;98030.38;5222925;28;20228;-65
2022/08/25 01:29:24;;;;;;;6.53;5.93;;;17.10;99.90;;;17.95;85.16;98025.97;5220400;28;20282;-65
2022/08/25 01:32:02;;;;;;;6.07;5.47;;;17.00;99.90;;;17.92;85.49;98025.03;5218607;28;20198;-65
2022/08/25 01:34:40;;;;;;;6.72;6.22;;;17.00;99.90;;;17.83;85.92;98020.44;5222732;28;20299;-66
2022/08/25 01:37:17;;;;;;;6.10;5.60;;;16.90;99.90;;;17.82;86.00;98016.09;5217424;28;20228;-66
2022/08/25 01:39:51;;;;;;;6.50;6.00;;;16.90;99.90;;;17.78;85.95;98022.00;5219548;28;20205;-63
2022/08/25 01:42:42;;;;;;;6.45;5.88;;;16.80;99.90;;;17.72;86.16;98021.78;5220794;28;20291;-65
2022/08/25 01:45:15;;;;;;;6.50;6.00;;;16.80;99.90;;;17.67;86.25;98018.16;5218444;28;20233;-66
2022/08/25 01:47:48;;;;;;;6.55;5.95;;;16.80;99.90;;;17.70;85.92;98020.84;5220208;28;20260;-65
2022/08/25 01:50:21;;;;;;;6.43;5.93;;;16.70;99.90;;;17.63;85.93;98016.31;5220225;28;20971;-65
2022/08/25 01:53:03;;;;;;;6.55;5.95;;;16.70;99.90;;;17.63;86.26;98005.97;5220812;28;20724;-64
2022/08/25 01:55:51;;;;;;;6.80;6.20;;;16.70;99.90;;;17.61;86.58;98018.84;5221461;28;20232;-66
2022/08/25 01:58:28;;;;;;;7.13;6.53;;;16.70;99.90;;;17.61;87.25;98015.38;5220265;28;20237;-65
2022/08/25 02:01:06;;;;;;;7.53;6.75;;;16.70;99.90;;;17.60;87.52;98001.59;5218123;28;20292;-66
2022/08/25 02:03:43;;;;;;;7.32;6.72;;;16.70;99.90;;;17.61;87.32;98005.91;5219436;28;20221;-66
2022/08/25 02:06:22;;;;;;;8.40;7.70;;;16.70;99.90;;;17.57;88.47;98004.09;5220782;28;20917;-65
2022/08/25 02:09:07;;;;;;;7.55;6.95;;;16.70;99.90;;;17.61;88.32;98002.47;5218511;28;20225;-66
2022/08/25 02:11:45;;;;;;;7.78;7.18;;;16.80;99.90;;;17.62;89.17;98004.22;5220344;28;20708;-65
2022/08/25 02:14:19;;;;;;;8.13;7.43;;;16.80;99.90;;;17.65;89.35;98005.19;5221300;28;20248;-65
2022/08/25 02:16:53;;;;;;;8.50;7.80;;;16.90;99.90;;;17.71;89.22;97996.72;5221397;28;20197;-66
2022/08/25 02:19:29;;;;;;;8.38;7.72;;;16.90;99.90;;;17.72;89.52;97999.38;5220268;28;20661;-65
2022/08/25 02:22:03;;;;;;;9.38;8.48;;;17.00;99.90;;;17.78;89.34;97998.72;5223072;28;20242;-66
2022/08/25 02:24:38;;;;;;;9.00;8.20;;;17.00;99.90;;;17.82;88.79;97995.38;5224556;28;20216;-65
2022/08/25 02:27:11;;;;;;;8.48;7.68;;;17.10;99.90;;;17.88;89.15;98003.34;5224210;28;20232;-65
2022/08/25 02:29:44;;;;;;;8.20;7.50;;;17.10;99.90;;;17.89;88.80;97994.75;5224262;28;20297;-65
2022/08/25 02:32:17;;;;;;;8.88;8.07;;;17.10;99.90;;;17.90;88.70;98001.69;5227000;28;20694;-65
2022/08/25 02:34:50;;;;;;;9.63;8.82;;;17.10;99.90;;;17.91;88.51;98003.47;5227012;28;20236;-65
2022/08/25 02:37:23;;;;;;;9.10;8.30;;;17.10;99.90;;;17.92;88.92;98001.75;5222868;28;20243;-66
2022/08/25 02:39:58;;;;;;;8.15;7.45;;;17.10;99.90;;;17.90;88.45;98000.81;5222936;28;20292;-64
2022/08/25 02:42:32;;;;;;;8.30;7.60;;;17.10;99.90;;;17.86;87.94;97999.84;5223138;28;20192;-66
2022/08/25 02:45:07;;;;;;;6.97;6.38;;;17.00;99.90;;;17.80;87.94;97994.50;5224208;28;20193;-65
2022/08/25 02:47:40;;;;;;;7.70;7.00;;;16.90;99.90;;;17.75;87.37;97993.44;5223644;28;20252;-66
2022/08/25 02:50:13;;;;;;;7.25;6.65;;;16.80;99.90;;;17.70;86.59;97992.41;5223538;28;20295;-66
2022/08/25 02:52:49;;;;;;;6.82;6.22;;;16.70;99.90;;;17.62;87.14;97984.41;5223661;28;20653;-65
2022/08/25 02:55:23;;;;;;;7.07;6.47;;;16.70;99.90;;;17.58;86.97;97992.91;5223769;28;20713;-66
2022/08/25 02:57:56;;;;;;;6.90;6.35;;;16.60;99.90;;;17.47;87.99;97984.81;5223851;28;20605;-65
2022/08/25 03:00:30;;;;;;;8.05;7.35;;;16.50;99.90;;;17.42;87.82;97985.47;5224189;28;20310;-66
2022/08/25 03:03:05;;;;;;;7.53;6.88;;;16.50;99.90;;;17.38;88.20;97983.63;5221335;28;20270;-65
2022/08/25 03:05:38;;;;;;;7.03;6.43;;;16.50;99.90;;;17.36;87.64;97986.16;5225005;28;20233;-65
2022/08/25 03:08:12;;;;;;;7.32;6.72;;;16.40;99.90;;;17.29;88.10;97979.94;5223996;28;20229;-65
2022/08/25 03:10:46;;;;;;;8.20;7.50;;;16.40;99.90;;;17.31;88.65;97987.72;5219439;28;20716;-66
2022/08/25 03:13:23;;;;;;;7.78;7.07;;;16.40;99.90;;;17.30;89.03;97983.38;5222489;28;20247;-65
2022/08/25 03:15:56;;;;;;;8.82;8.02;;;16.40;99.90;;;17.33;89.36;97986.06;5224893;28;20279;-63
2022/08/25 03:18:31;;;;;;;8.55;7.85;;;16.50;99.90;;;17.32;89.57;97984.31;5224117;28;20212;-66
2022/08/25 03:21:04;;;;;;;8.55;7.78;;;16.50;99.90;;;17.35;89.09;97984.41;5222599;28;20278;-65
2022/08/25 03:23:38;;;;;;;8.13;7.40;;;16.50;99.90;;;17.38;89.07;97979.34;5223948;28;20227;-65
2022/08/25 03:29:04;;;;;;;8.85;8.02;;;16.50;99.90;;;17.31;88.99;97978.28;5222218;28;20741;-65
2022/08/25 03:31:38;;;;;;;8.45;7.75;;;16.40;99.90;;;17.27;88.47;97975.53;5223349;28;20225;-65
2022/08/25 03:34:11;;;;;;;7.35;6.75;;;16.40;99.90;;;17.30;88.42;97980.78;5221949;28;20248;-65
2022/08/25 03:36:46;;;;;;;8.45;7.65;;;16.30;99.90;;;17.26;88.18;97979.81;5223642;28;20304;-66
2022/08/25 03:39:22;;;;;;;8.05;7.35;;;16.30;99.90;;;17.25;88.29;97979.75;5221415;28;20291;-66
2022/08/25 03:41:56;;;;;;;8.07;7.38;;;16.20;99.90;;;17.19;88.35;97987.31;5223566;28;20251;-66
2022/08/25 03:44:29;;;;;;;7.90;7.20;;;16.20;99.90;;;17.10;88.11;97982.72;5223713;28;20303;-66
2022/08/25 03:47:03;;;;;;;8.80;8.10;;;16.20;99.90;;;17.04;88.97;97988.56;5221261;28;20236;-64
2022/08/25 03:49:36;;;;;;;8.40;7.60;;;16.10;99.90;;;17.01;89.24;97996.22;5220554;28;20307;-65
2022/08/25 03:52:09;;;;;;;8.50;7.80;;;16.10;99.90;;;17.03;89.11;98001.44;5223175;28;20331;-66
2022/08/25 03:54:42;;;;;;;7.63;6.88;;;16.10;99.90;;;16.98;88.78;97993.53;5222798;28;20248;-66
2022/08/25 03:57:19;;;;;;;8.15;7.40;;;16.10;99.90;;;16.97;88.74;98002.09;5223449;28;20221;-65
2022/08/25 03:59:52;;;;;;;7.70;7.07;;;16.10;99.90;;;16.96;88.68;98005.50;5220858;28;20651;-66
2022/08/25 04:02:25;;;;;;;7.90;7.15;;;16.10;99.90;;;16.91;89.16;98007.03;5219826;28;20217;-65
2022/08/25 04:04:58;;;;;;;8.13;7.43;;;16.00;99.90;;;16.91;89.07;98004.44;5222886;28;20786;-66
2022/08/25 04:07:32;;;;;;;9.23;8.38;;;16.00;99.90;;;16.87;89.11;98005.19;5217107;28;20279;-64
2022/08/25 04:10:05;;;;;;;8.98;8.18;;;16.00;99.90;;;16.85;90.16;98009.41;5218792;28;20245;-66
2022/08/25 04:12:40;;;;;;;8.98;8.27;;;16.00;99.90;;;16.86;90.06;97999.16;5221895;28;20239;-66
2022/08/25 04:15:13;;;;;;;8.98;8.18;;;16.00;99.90;;;16.88;89.73;97996.59;5221621;28;20205;-65
2022/08/25 04:17:46;;;;;;;8.98;8.18;;;16.00;99.90;;;16.91;89.89;98006.16;5222684;28;20221;-65
2022/08/25 04:20:23;;;;;;;9.23;8.25;;;16.00;99.90;;;16.78;90.11;97994.53;5221488;28;20193;-65
2022/08/25 04:22:59;;;;;;;9.40;8.60;;;15.90;99.90;;;16.71;90.79;97992.53;5220458;28;20928;-64
2022/08/25 04:25:32;;;;;;;9.50;8.02;;;15.80;99.90;;;16.66;91.12;97980.34;5218601;28;20255;-66
2022/08/25 04:28:07;;;;;;;9.23;8.43;;;15.80;99.90;;;16.71;91.18;97977.03;5220086;28;20280;-64
2022/08/25 04:30:42;;;;;;;9.15;8.35;;;15.90;99.90;;;16.71;91.50;97975.38;5220464;28;20197;-65
2022/08/25 04:33:15;;;;;;;8.68;7.88;;;15.90;99.90;;;16.69;90.94;97978.72;5219422;28;20257;-65
2022/08/25 04:35:50;;;;;;;9.00;8.20;;;15.80;99.90;;;16.64;90.46;97970.78;5220157;28;20255;-66
2022/08/25 04:38:23;;;;;;;8.80;8.00;;;15.70;99.90;;;16.58;90.03;97979.19;5218898;28;20658;-65
2022/08/25 04:40:57;;;;;;;9.02;8.23;;;15.60;99.90;;;16.58;90.55;97981.78;5220984;28;20271;-65
2022/08/25 04:43:33;;;;;;;10.90;9.93;;;15.70;99.90;;;16.62;91.10;97981.06;5220134;28;20304;-65
2022/08/25 04:46:08;;;;;;;10.60;9.50;;;15.80;99.90;;;16.59;93.60;97987.81;5221248;28;20668;-66
2022/08/25 04:48:42;;;;;;;10.63;9.63;;;15.80;99.90;;;16.61;93.49;97984.47;5219988;28;20256;-65
2022/08/25 04:51:19;;;;;;;10.25;9.30;;;15.90;99.90;;;16.69;93.57;97989.91;5218017;28;20295;-65
2022/08/25 04:53:55;;;;;;;11.18;10.18;;;15.90;99.90;;;16.79;93.14;97980.81;5220588;28;20231;-65
2022/08/25 04:56:31;;;;;;;10.60;9.70;;;16.00;99.90;;;16.81;93.73;97979.16;5218482;28;20211;-65
2022/08/25 04:59:10;;;;;;;10.70;9.70;;;16.10;99.90;;;16.91;93.73;97986.38;5220684;28;20199;-65
2022/08/25 05:01:46;;;;;;;10.48;9.57;;;16.20;99.90;;;17.03;91.77;97983.38;5219046;28;20246;-65
2022/08/25 05:04:23;;;;;;;9.60;8.73;;;16.20;99.90;;;17.06;91.73;97989.50;5220803;28;20744;-65
2022/08/25 05:07:02;;;;;;;9.95;8.95;;;16.20;99.90;;;17.13;90.86;97997.44;5222565;28;20205;-65
2022/08/25 05:09:36;;;;;;;10.57;9.65;;;16.30;99.90;;;17.12;90.23;97999.16;5220004;28;20216;-65
2022/08/25 05:12:11;;;;;;;11.00;10.00;;;16.20;99.90;;;17.13;89.32;97997.44;5222257;28;20291;-65
2022/08/25 05:14:47;;;;;;;10.52;9.43;;;16.20;99.90;;;17.07;88.92;98004.16;5222144;28;20224;-65
2022/08/25 05:17:21;;;;;;;10.68;9.63;;;16.10;99.90;;;17.07;89.31;98008.44;5218540;28;20837;-66
2022/08/25 05:19:55;;;;;;;11.32;10.43;;;16.20;99.90;;;17.08;90.15;97994.69;5219876;28;20255;-66
2022/08/25 05:22:29;;;;;;;10.98;9.88;;;16.20;99.90;;;17.13;88.95;97993.16;5220614;28;20205;-66
2022/08/25 05:25:04;;;;;;;10.25;9.25;;;16.30;99.90;;;17.39;88.96;98001.75;5222788;28;20275;-67
2022/08/25 05:27:37;;;;;;;9.98;8.98;;;16.40;99.90;;;17.73;87.77;98000.25;5222365;28;20196;-66
2022/08/25 05:30:13;;;;;;;9.73;8.82;;;16.60;99.90;;;18.05;86.18;98001.25;5220799;28;20648;-66
2022/08/25 05:32:47;;;;;;;9.35;8.45;;;16.90;99.90;;;18.52;84.99;97998.31;5219886;28;20299;-66
2022/08/25 05:35:23;;;;;;;10.38;9.35;;;17.30;99.90;;;19.04;82.41;97984.19;5219691;28;20208;-65
2022/08/25 05:37:57;;;;;;;9.77;8.88;;;17.60;99.90;;;19.38;80.35;97982.44;5220247;28;20200;-67
2022/08/25 05:40:31;;;;;;;9.45;8.55;;;17.80;99.90;;;19.66;78.63;97982.31;5217161;28;20715;-66
2022/08/25 05:43:05;;;;;;;9.25;8.40;;;18.10;99.90;;;20.22;76.59;97979.19;5220804;28;20259;-66
2022/08/25 05:45:40;;;;;;;8.45;7.75;;;18.50;99.90;;;20.66;74.32;97971.41;5221602;28;20201;-67
2022/08/25 05:48:14;;;;;;;8.40;7.70;;;18.90;99.90;;;20.95;71.94;97973.72;5221709;28;20209;-66
2022/08/25 05:50:52;;;;;;;9.05;8.25;;;19.50;99.90;;;21.05;72.49;97963.47;5216407;28;20229;-67
2022/08/25 05:53:28;;;;;;;9.30;8.40;;;19.60;99.90;;;21.36;70.19;97967.50;5223791;28;20232;-66
2022/08/25 05:56:07;;;;;;;8.60;7.75;;;20.10;99.90;;;21.71;69.34;97974.09;5222647;28;20287;-66
2022/08/25 05:58:43;;;;;;;8.77;7.97;;;20.20;99.90;;;22.03;68.25;97967.66;5223725;28;20684;-67
2022/08/25 06:04:21;;;;;;;8.38;7.68;;;20.70;99.90;;;22.21;66.70;97967.03;5224438;28;20224;-66
2022/08/25 06:06:55;;;;;;;8.27;7.57;;;20.70;99.90;;;22.77;65.35;97958.09;5225197;28;20193;-65
2022/08/25 06:09:30;;;;;;;9.07;8.35;;;20.90;99.90;;;23.14;64.51;97958.50;5222865;28;20215;-66
2022/08/25 06:12:04;;;;;;;8.50;7.70;;;21.40;99.90;;;23.75;62.54;97953.78;5221406;28;20266;-67
2022/08/25 06:14:39;;;;;;;8.45;7.75;;;21.90;99.90;;;24.02;61.00;97958.28;5223185;28;20229;-66
2022/08/25 06:17:13;;;;;;;9.23;8.43;;;22.20;99.90;;;24.09;60.86;97961.78;5222950;28;20205;-66
2022/08/25 06:19:47;;;;;;;8.68;7.88;;;21.90;99.90;;;24.24;60.96;97963.63;5220262;28;20224;-67
2022/08/25 06:22:20;;;;;;;9.80;9.00;;;22.10;99.90;;;23.66;62.45;97952.81;5222472;28;20229;-66
2022/08/25 06:24:53;;;;;;;9.13;8.25;;;21.90;99.90;;;24.35;60.28;97950.56;5223446;28;20245;-67
2022/08/25 06:27:26;;;;;;;9.60;8.70;;;22.40;99.90;;;24.53;59.73;97948.06;5226631;28;20236;-66
2022/08/25 06:30:03;;;;;;;9.88;9.13;;;22.70;99.90;;;24.72;58.85;97942.03;5223987;28;20569;-66
2022/08/25 06:32:44;;;;;;;10.15;9.20;;;22.60;99.90;;;24.75;58.99;97938.53;5223507;28;20197;-68
2022/08/25 06:35:19;;;;;;;10.13;9.32;;;22.60;99.90;;;25.10;57.64;97933.34;5223793;28;20295;-66
2022/08/25 06:37:53;;;;;;;10.07;9.07;;;23.20;99.90;;;25.05;58.18;97929.84;5225724;28;20224;-66
2022/08/25 06:40:26;;;;;;;9.77;8.98;;;23.40;99.90;;;25.01;58.33;97935.06;5219449;28;20673;-66
2022/08/25 06:43:00;;;;;;;10.90;9.90;;;23.20;99.90;;;24.67;59.47;97928.06;5224291;28;20229;-68
2022/08/25 06:45:33;;;;;;;10.45;9.55;;;23.20;99.90;;;25.13;57.88;97929.88;5224528;28;20213;-68
2022/08/25 06:48:08;;;;;;;10.27;9.38;;;23.40;99.90;;;25.35;57.00;97926.41;5225190;28;20839;-67
2022/08/25 06:50:42;;;;;;;10.50;9.52;;;23.50;99.90;;;25.26;57.61;97933.38;5225042;28;20699;-66
2022/08/25 06:53:15;;;;;;;10.68;9.75;;;23.50;99.90;;;25.16;58.18;97929.91;5218658;28;20328;-66
2022/08/25 06:55:57;;;;;;;9.77;8.98;;;23.60;99.90;;;25.35;57.83;97923.81;5222070;28;20225;-66
2022/08/25 06:58:34;;;;;;;10.88;9.77;;;23.90;99.90;;;25.55;57.16;97926.41;5220819;28;20205;-66
2022/08/25 07:01:08;;;;;;;9.73;8.93;;;24.30;99.90;;;26.33;55.09;97921.81;5222854;28;20696;-66
2022/08/25 07:03:57;;;;;;;8.68;7.88;;;24.80;99.80;;;26.70;54.35;97923.38;5224626;28;20229;-66
2022/08/25 07:06:34;;;;;;;9.10;8.25;;;25.10;99.30;;;26.69;53.89;97926.88;5223029;28;20228;-66
2022/08/25 07:09:09;;;;;;;9.20;8.40;;;25.30;98.50;;;26.60;54.85;97926.06;5224314;28;20208;-68
2022/08/25 07:11:44;;;;;;;9.00;8.30;;;25.00;99.50;;;27.15;53.46;97925.69;5225400;28;20269;-66
2022/08/25 07:14:18;;;;;;;8.60;7.90;;;25.30;98.90;;;27.40;52.70;97929.00;5226812;28;20223;-66
2022/08/25 07:16:51;;;;;;;9.23;8.30;;;25.80;97.90;;;27.93;51.41;97932.00;5224384;28;20228;-66
2022/08/25 07:19:26;;;;;;;8.68;7.97;;;26.00;97.70;;;28.13;50.38;97937.94;5222895;28;20204;-68
2022/08/25 07:21:59;;;;;;;8.13;7.45;;;26.00;97.40;;;28.35;50.59;97930.63;5221574;28;20250;-67
2022/08/25 07:24:33;;;;;;;9.10;8.35;;;26.20;97.40;;;28.72;49.26;97930.16;5224919;28;20232;-68
2022/08/25 07:27:06;;;;;;;8.45;7.78;;;26.70;96.20;;;29.35;47.82;97926.56;5224519;28;20296;-66
2022/08/25 07:29:40;;;;;;;8.55;7.85;;;26.80;96.10;;;29.47;47.39;97926.34;5224074;28;20255;-68
2022/08/25 07:32:14;;;;;;;7.90;7.30;;;27.10;95.40;;;29.58;47.31;97927.03;5225443;28;20192;-67
2022/08/25 07:37:41;;;;;;;7.30;6.70;;;27.50;95.30;;;30.43;44.53;97923.69;5222781;28;20200;-69
2022/08/25 07:40:24;;;;;;;8.32;7.60;;;28.00;93.50;;;29.83;45.11;97926.63;5220489;28;20212;-66
2022/08/25 07:43:00;;;;;;;7.25;6.65;;;28.10;92.70;;;29.12;47.54;97925.19;5224600;28;20248;-66
2022/08/25 07:45:39;;;;;;;7.97;7.18;;;27.50;93.80;;;29.45;47.60;97922.91;5224472;28;20204;-66
2022/08/25 07:48:21;;;;;;;7.68;6.97;;;27.80;93.60;;;29.25;46.71;97922.38;5221984;28;20212;-67
2022/08/25 07:50:56;;;;;;;7.80;7.00;;;27.80;92.80;;;29.78;45.37;97917.94;5222652;28;20699;-68
2022/08/25 07:53:29;;;;;;;8.00;7.20;;;28.30;92.00;;;29.67;45.58;97933.94;5217613;28;20263;-66
2022/08/25 07:56:03;;;;;;;7.80;7.20;;;28.50;91.30;;;29.56;45.99;97920.94;5222627;28;20233;-66
2022/08/25 07:58:43;;;;;;;7.50;6.93;;;28.40;91.40;;;29.83;45.14;97924.00;5221157;28;20236;-67
2022/08/25 08:01:19;;;;;;;6.95;6.40;;;28.70;90.70;;;29.46;45.57;97924.63;5225017;28;20204;-66
2022/08/25 08:03:53;;;;;;;7.45;6.50;;;28.40;91.00;;;29.76;45.24;97927.63;5221900;28;20216;-66
2022/08/25 08:06:27;;;;;;;7.65;7.05;;;28.60;90.90;;;29.80;45.21;97913.50;5223406;28;20283;-67
2022/08/25 08:09:01;;;;;;;7.63;7.10;;;28.80;90.50;;;29.80;45.04;97909.09;5220988;28;20921;-66
2022/08/25 08:11:39;;;;;;;7.75;7.15;;;28.80;90.40;;;29.31;46.57;97917.00;5227445;28;20252;-66
2022/08/25 08:14:25;;;;;;;7.45;6.85;;;28.30;90.80;;;29.88;45.04;97910.75;5223362;28;20236;-66
2022/08/25 08:16:58;;;;;;;7.75;7.07;;;28.60;90.40;;;29.84;44.99;97915.19;5224002;28;20224;-67
2022/08/25 08:19:31;;;;;;;7.72;7.07;;;28.90;90.10;;;29.67;45.60;97928.66;5224584;28;20941;-66
2022/08/25 08:22:09;;;;;;;7.22;6.63;;;29.10;89.20;;;29.86;45.55;97926.56;5223727;28;20808;-66
2022/08/25 08:24:44;;;;;;;7.53;6.93;;;29.20;89.40;;;29.57;45.35;97921.81;5224671;28;20563;-67
2022/08/25 08:27:28;;;;;;;7.28;6.65;;;28.80;89.70;;;29.92;45.09;97909.75;5222245;28;20728;-66
2022/08/25 08:30:01;;;;;;;7.65;7.05;;;29.20;89.10;;;30.01;44.13;97914.84;5223410;28;20315;-66
2022/08/25 08:32:35;;;;;;;6.97;6.47;;;29.30;87.90;;;29.45;45.43;97917.63;5222833;28;20248;-67
2022/08/25 08:35:28;;;;;;;7.75;6.88;;;28.90;88.40;;;29.53;45.19;97913.09;5224099;28;20616;-66
2022/08/25 08:38:03;;;;;;;7.13;6.50;;;28.90;87.90;;;29.69;45.64;97904.94;5223882;28;20220;-66
2022/08/25 08:44:07;;;;;;;6.57;6.07;;;29.60;86.00;;;30.05;42.89;97901.59;5222300;28;20231;-66
2022/08/25 08:46:51;;;;;;;7.00;6.40;;;29.70;84.20;;;30.14;43.60;97904.94;5224755;28;20232;-69
2022/08/25 08:49:36;;;;;;;6.97;6.28;;;29.60;85.50;;;30.14;43.48;97897.03;5223910;28;20783;-66
2022/08/25 08:52:11;;;;;;;6.88;6.38;;;29.60;85.10;;;30.46;42.17;97889.31;5226487;28;20776;-66
2022/08/25 08:54:50;;;;;;;7.15;6.55;;;30.10;83.10;;;30.22;43.26;97884.59;5220679;28;20232;-66
2022/08/25 08:57:28;;;;;;;6.38;5.78;;;29.80;84.50;;;30.13;42.93;97879.44;5222073;28;20633;-66
2022/08/25 09:00:07;;;;;;;9.35;6.80;;;29.60;84.90;;;30.00;43.21;97884.97;5219650;28;21936;-66
2022/08/25 09:02:46;;;;;;;6.85;6.18;;;29.40;84.80;;;30.15;43.24;97880.28;5220331;28;20224;-69
2022/08/25 09:05:28;;;;;;;6.25;5.75;;;29.50;84.50;;;30.34;42.16;97879.03;5220113;28;20564;-66
2022/08/25 09:08:06;;;;;;;6.28;5.78;;;29.70;83.70;;;29.97;42.28;97871.88;5220846;28;20235;-67
2022/08/25 09:10:56;;;;;;;5.93;5.43;;;29.50;83.00;;;30.20;42.59;97873.16;5221546;28;20287;-66
2022/08/25 09:13:44;;;;;;;6.93;6.32;;;29.60;83.90;;;30.23;42.50;97875.75;5219828;28;20363;-67
2022/08/25 09:16:55;;;;;;;6.25;5.75;;;29.70;83.30;;;30.00;42.83;97874.44;5221712;28;20193;-66
2022/08/25 09:19:54;;;;;;;6.55;6.03;;;29.30;84.70;;;30.05;43.16;97872.59;5222642;28;20252;-66
2022/08/25 09:22:46;;;;;;;6.22;5.72;;;29.50;83.80;;;30.19;42.30;97863.50;5220218;28;20196;-66
2022/08/25 09:25:29;;;;;;;6.30;5.70;;;29.80;82.50;;;30.03;42.69;97866.47;5224817;28;20204;-66
2022/08/25 09:28:30;;;;;;;5.63;5.18;;;29.50;83.60;;;30.26;42.30;97858.09;5217295;28;20266;-66
2022/08/25 09:31:13;;;;;;;6.43;6.00;;;29.80;82.40;;;29.54;43.25;97870.03;5217698;28;20205;-66
2022/08/25 09:33:46;;;;;;;6.32;5.68;;;29.30;82.30;;;29.66;42.75;97863.69;5221479;28;20273;-66
2022/08/25 09:36:19;;;;;;;5.90;5.40;;;29.20;82.30;;;29.77;42.36;97863.50;5223054;28;20231;-66
2022/08/25 09:38:55;;;;;;;6.47;5.97;;;29.40;82.20;;;29.98;41.92;97852.50;5219349;28;20235;-66
2022/08/25 09:41:45;;;;;;;6.07;5.68;;;29.70;81.40;;;29.96;43.00;97850.78;5218235;28;20645;-67
2022/08/25 09:44:54;;;;;;;6.75;6.15;;;29.40;82.80;;;30.23;42.36;97841.47;5219216;28;20305;-66
2022/08/25 09:47:28;;;;;;;6.07;5.57;;;29.80;82.30;;;30.36;42.35;97844.69;5224783;28;20209;-64
2022/08/25 09:50:04;;;;;;;6.35;5.75;;;30.10;81.90;;;30.04;41.72;97841.81;5219263;28;20282;-66
2022/08/25 09:52:39;;;;;;;6.03;5.53;;;29.80;80.80;;;30.15;41.76;97840.75;5215501;28;20323;-66
2022/08/25 09:55:31;;;;;;;5.93;5.43;;;29.70;81.30;;;30.13;41.51;97838.13;5219024;28;20222;-67
2022/08/25 09:58:18;;;;;;;6.50;5.90;;;29.60;80.90;;;29.95;42.83;97828.84;5221390;28;20203;-68
2022/08/25 10:01:14;;;;;;;6.22;5.70;;;29.50;82.10;;;29.93;42.78;97825.34;5219758;28;20203;-67
2022/08/25 10:03:58;;;;;;;6.55;6.00;;;29.60;81.90;;;29.98;42.24;97828.78;5217309;28;20225;-67
2022/08/25 10:06:43;;;;;;;6.45;5.95;;;29.50;81.70;;;29.82;41.94;97851.09;5221349;28;20200;-66
2022/08/25 10:09:28;;;;;;;6.50;6.00;;;29.40;81.70;;;29.46;42.59;97827.16;5220161;28;20220;-66
2022/08/25 10:12:03;;;;;;;6.13;5.63;;;29.00;81.60;;;29.69;42.92;97828.53;5218442;28;20398;-67
2022/08/25 10:14:39;;;;;;;6.15;5.70;;;29.10;82.30;;;29.63;42.67;97827.72;5220101;28;20254;-66
2022/08/25 10:17:24;;;;;;;5.47;5.07;;;29.10;82.60;;;29.99;42.19;97821.72;5220245;28;20193;-68
2022/08/25 10:20:17;;;;;;;5.93;5.53;;;29.40;82.40;;;29.95;42.72;97818.28;5219331;28;20279;-67
2022/08/25 10:22:52;;;;;;;5.70;5.28;;;29.40;81.70;;;30.16;42.47;97827.53;5219184;28;20228;-67
2022/08/25 10:25:30;;;;;;;6.07;5.60;;;29.70;81.70;;;29.89;41.88;97817.56;5218956;28;20236;-67
2022/08/25 10:28:12;;;;;;;5.90;5.50;;;29.40;81.40;;;29.86;41.98;97813.22;5219651;28;20283;-68
2022/08/25 10:30:57;;;;;;;5.88;5.47;;;29.20;81.60;;;29.57;42.17;97809.38;5213911;28;20236;-68
2022/08/25 10:33:46;;;;;;;6.07;5.57;;;28.90;81.90;;;29.46;42.64;97800.81;5218769;28;20484;-66
2022/08/25 10:36:41;;;;;;;6.03;5.55;;;29.10;81.50;;;29.62;42.83;97804.94;5221609;28;20672;-68
2022/08/25 10:39:35;;;;;;;6.18;5.68;;;29.10;82.10;;;29.49;43.30;97800.75;5215154;28;20200;-67
2022/08/25 10:42:29;;;;;;;5.88;5.38;;;28.90;82.50;;;29.58;42.87;97791.81;5219665;28;20205;-67
2022/08/25 10:48:41;;;;;;;5.57;5.18;;;29.10;81.50;;;30.05;40.86;97782.06;5221773;28;20204;-68
2022/08/25 10:51:40;;;;;;;5.85;5.35;;;29.40;80.90;;;30.24;41.42;97787.81;5222805;28;20232;-68
2022/08/25 10:54:32;;;;;;;5.75;5.25;;;29.60;80.30;;;30.28;41.10;97784.22;5220939;28;20236;-67
2022/08/25 10:57:19;;;;;;;5.45;4.95;;;29.50;80.60;;;30.44;40.99;97788.22;5221303;28;20595;-68
2022/08/25 11:00:01;;;;;;;5.85;5.40;;;29.70;80.50;;;30.56;40.48;97786.19;5220527;28;20299;-66
2022/08/25 11:03:02;;;;;;;5.40;5.00;;;29.80;80.00;;;30.58;40.86;97787.03;5223800;28;20232;-67
2022/08/25 11:05:43;;;;;;;5.78;5.30;;;29.80;79.80;;;30.52;40.60;97777.47;5223895;28;20262;-68
2022/08/25 11:08:23;;;;;;;5.88;5.45;;;29.70;80.10;;;30.73;40.34;97776.97;5220982;28;20200;-68
2022/08/25 11:11:04;;;;;;;5.75;5.35;;;29.90;79.40;;;30.70;40.35;97768.25;5224503;28;20625;-67
2022/08/25 11:13:44;;;;;;;5.68;5.28;;;29.90;79.60;;;30.78;40.32;97782.13;5220357;28;20667;-67
2022/08/25 11:16:27;;;;;;;5.25;4.85;;;30.00;79.50;;;30.59;40.42;97772.91;5222527;28;20300;-68